createdAt,value
2019-05-12T00:00:48.575Z,7.5
2019-05-12T00:01:49.828Z,7.6
2019-05-12T00:02:51.439Z,7.4
2019-05-12T00:03:52.827Z,7.4
2019-05-12T00:04:54.224Z,7.4
2019-05-12T00:05:57.381Z,7.6
2019-05-12T00:06:58.569Z,7.4
2019-05-12T00:07:58.874Z,7.6
2019-05-12T00:09:00.086Z,7.4
2019-05-12T00:10:01.473Z,7.3
2019-05-12T00:11:02.873Z,7.5
2019-05-12T00:12:04.422Z,7.5
2019-05-12T00:13:08.149Z,7.5
2019-05-12T00:14:08.613Z,7.4
2019-05-12T00:15:08.723Z,7.4
2019-05-12T00:16:10.113Z,7.3
2019-05-12T00:17:11.509Z,7.4
2019-05-12T00:18:13.042Z,7.3
2019-05-12T00:19:14.437Z,7.4
2019-05-12T00:20:17.794Z,7.5
2019-05-12T00:21:17.673Z,7.5
2019-05-12T00:22:18.807Z,7.5
2019-05-12T00:23:27.475Z,7.5
2019-05-12T00:24:22.916Z,7.6
2019-05-12T00:25:24.339Z,7.5
2019-05-12T00:26:28.131Z,7.5
2019-05-12T00:27:28.456Z,7.5
2019-05-12T00:28:29.522Z,7.5
2019-05-12T00:29:30.891Z,7.5
2019-05-12T00:30:32.374Z,7.5
2019-05-12T00:31:34.719Z,7.5
2019-05-12T00:32:38.435Z,7.4
2019-05-12T00:33:38.540Z,7.5
2019-05-12T00:34:39.575Z,7.5
2019-05-12T00:35:40.964Z,7.6
2019-05-12T00:36:42.463Z,7.5
2019-05-12T00:37:43.865Z,7.5
2019-05-12T00:38:45.333Z,7.4
2019-05-12T00:39:47.852Z,7.4
2019-05-12T00:40:48.834Z,7.4
2019-05-12T00:41:50.256Z,7.4
2019-05-12T00:42:52.142Z,7.4
2019-05-12T00:43:53.999Z,7.5
2019-05-12T00:44:58.424Z,7.5
2019-05-12T00:45:58.718Z,7.4
2019-05-12T00:46:59.162Z,7.4
2019-05-12T00:48:00.953Z,7.5
2019-05-12T00:49:02.415Z,7.5
2019-05-12T00:50:04.050Z,7.2
2019-05-12T00:51:07.618Z,7.1
2019-05-12T00:52:08.105Z,7.0
2019-05-12T00:53:09.042Z,7.1
2019-05-12T00:54:09.782Z,7.2
2019-05-12T00:55:11.251Z,7.0
2019-05-12T00:56:12.652Z,6.9
2019-05-12T00:57:14.132Z,6.9
2019-05-12T00:58:15.537Z,6.9
2019-05-12T00:59:18.865Z,7.0
2019-05-12T01:00:18.365Z,6.9
2019-05-12T01:01:19.894Z,6.9
2019-05-12T01:02:22.680Z,6.9
2019-05-12T01:03:24.080Z,7.0
2019-05-12T01:04:25.673Z,7.1
2019-05-12T01:05:29.132Z,7.2
2019-05-12T01:06:28.477Z,7.2
2019-05-12T01:07:29.968Z,7.2
2019-05-12T01:08:31.363Z,7.1
2019-05-12T01:09:32.881Z,7.1
2019-05-12T01:10:34.495Z,7.2
2019-05-12T01:11:37.775Z,7.2
2019-05-12T01:12:38.222Z,7.2
2019-05-12T01:13:38.817Z,7.2
2019-05-12T01:14:40.210Z,7.2
2019-05-12T01:15:41.606Z,7.2
2019-05-12T01:16:43.144Z,7.3
2019-05-12T01:17:44.543Z,7.3
2019-05-12T01:18:47.857Z,7.3
2019-05-12T01:19:48.577Z,7.4
2019-05-12T01:20:48.820Z,7.3
2019-05-12T01:21:50.593Z,7.2
2019-05-12T01:22:52.188Z,7.5
2019-05-12T01:23:59.794Z,7.3
2019-05-12T01:24:57.720Z,7.3
2019-05-12T01:25:58.613Z,7.3
2019-05-12T01:26:58.387Z,7.3
2019-05-12T01:28:00.014Z,7.3
2019-05-12T01:29:01.717Z,7.3
2019-05-12T01:30:03.210Z,7.4
2019-05-12T01:31:04.737Z,7.4
2019-05-12T01:32:07.914Z,7.2
2019-05-12T01:33:08.604Z,7.3
2019-05-12T01:34:08.973Z,7.2
2019-05-12T01:35:10.524Z,7.4
2019-05-12T01:36:11.969Z,7.3
2019-05-12T01:37:13.592Z,7.3
2019-05-12T01:38:14.980Z,7.2
2019-05-12T01:39:18.607Z,7.2
2019-05-12T01:40:19.046Z,7.3
2019-05-12T01:41:19.324Z,7.1
2019-05-12T01:42:20.765Z,7.1
2019-05-12T01:43:22.230Z,7.3
2019-05-12T01:44:23.620Z,7.4
2019-05-12T01:45:25.139Z,7.4
2019-05-12T01:46:28.853Z,7.4
2019-05-12T01:47:29.101Z,7.4
2019-05-12T01:48:29.774Z,7.5
2019-05-12T01:49:31.164Z,7.4
2019-05-12T01:50:33.105Z,7.4
2019-05-12T01:51:34.527Z,7.3
2019-05-12T01:52:38.381Z,7.3
2019-05-12T01:53:37.802Z,7.2
2019-05-12T01:54:38.813Z,7.2
2019-05-12T01:55:40.401Z,7.3
2019-05-12T01:56:41.794Z,7.3
2019-05-12T01:57:43.419Z,7.2
2019-05-12T01:58:45.195Z,7.1
2019-05-12T01:59:48.266Z,7.1
2019-05-12T02:00:48.319Z,7.1
2019-05-12T02:01:49.595Z,7.0
2019-05-12T02:02:51.020Z,7.0
2019-05-12T02:03:52.476Z,7.0
2019-05-12T02:04:53.871Z,7.2
2019-05-12T02:05:57.449Z,7.1
2019-05-12T02:06:57.780Z,7.1
2019-05-12T02:07:58.894Z,7.3
2019-05-12T02:09:00.046Z,7.2
2019-05-12T02:10:01.443Z,7.1
2019-05-12T02:11:02.964Z,7.3
2019-05-12T02:12:04.357Z,7.3
2019-05-12T02:13:07.731Z,7.4
2019-05-12T02:14:09.015Z,7.4
2019-05-12T02:15:09.067Z,7.4
2019-05-12T02:16:10.574Z,7.3
2019-05-12T02:17:11.970Z,7.4
2019-05-12T02:18:13.457Z,7.5
2019-05-12T02:19:14.852Z,7.6
2019-05-12T02:20:17.930Z,7.5
2019-05-12T02:21:18.904Z,7.6
2019-05-12T02:22:19.633Z,7.5
2019-05-12T02:23:21.020Z,7.5
2019-05-12T02:24:27.057Z,7.5
2019-05-12T02:25:23.974Z,7.5
2019-05-12T02:26:25.375Z,7.6
2019-05-12T02:27:28.312Z,7.6
2019-05-12T02:28:28.684Z,7.6
2019-05-12T02:29:29.629Z,7.5
2019-05-12T02:30:31.029Z,7.5
2019-05-12T02:31:32.592Z,7.5
2019-05-12T02:32:47.310Z,7.6
2019-05-12T02:33:35.711Z,7.6
2019-05-12T02:34:37.026Z,7.5
2019-05-12T02:35:38.591Z,7.6
2019-05-12T02:36:40.205Z,7.6
2019-05-12T02:37:44.995Z,7.6
2019-05-12T02:38:45.219Z,7.6
2019-05-12T02:39:44.862Z,7.5
2019-05-12T02:40:45.890Z,7.6
2019-05-12T02:41:48.331Z,7.7
2019-05-12T02:42:49.874Z,7.6
2019-05-12T02:43:55.125Z,7.5
2019-05-12T02:44:54.987Z,7.4
2019-05-12T02:45:54.757Z,7.4
2019-05-12T02:46:55.560Z,7.5
2019-05-12T02:47:56.962Z,7.6
2019-05-12T02:48:58.516Z,7.7
2019-05-12T02:49:59.921Z,7.6
2019-05-12T02:51:01.321Z,7.6
2019-05-12T02:52:05.033Z,7.5
2019-05-12T02:53:05.239Z,7.5
2019-05-12T02:54:05.782Z,7.6
2019-05-12T02:55:07.198Z,7.6
2019-05-12T02:56:08.577Z,7.5
2019-05-12T02:57:10.368Z,7.4
2019-05-12T02:58:15.001Z,7.5
2019-05-12T02:59:15.423Z,7.5
2019-05-12T03:00:15.935Z,7.5
2019-05-12T03:01:16.821Z,7.5
2019-05-12T03:02:18.219Z,7.4
2019-05-12T03:03:19.641Z,7.3
2019-05-12T03:04:21.150Z,7.3
2019-05-12T03:05:24.787Z,7.3
2019-05-12T03:06:25.129Z,7.2
2019-05-12T03:07:25.713Z,7.3
2019-05-12T03:08:26.926Z,7.0
2019-05-12T03:09:28.367Z,7.1
2019-05-12T03:10:30.009Z,7.1
2019-05-12T03:11:31.395Z,7.1
2019-05-12T03:12:34.460Z,7.0
2019-05-12T03:13:34.707Z,7.1
2019-05-12T03:14:40.271Z,7.0
2019-05-12T03:15:37.686Z,7.0
2019-05-12T03:16:38.638Z,6.9
2019-05-12T03:17:40.046Z,7.0
2019-05-12T03:18:44.709Z,7.0
2019-05-12T03:19:44.905Z,7.1
2019-05-12T03:20:45.477Z,7.1
2019-05-12T03:21:46.138Z,7.0
2019-05-12T03:22:47.793Z,7.0
2019-05-12T03:23:49.240Z,7.1
2019-05-12T03:25:06.597Z,7.0
2019-05-12T03:25:54.665Z,7.0
2019-05-12T03:26:55.278Z,7.0
2019-05-12T03:27:55.877Z,7.0
2019-05-12T03:28:57.362Z,7.0
2019-05-12T03:29:58.756Z,7.0
2019-05-12T03:31:00.256Z,7.2
2019-05-12T03:32:07.540Z,7.2
2019-05-12T03:33:09.770Z,7.2
2019-05-12T03:34:09.164Z,7.1
2019-05-12T03:35:08.889Z,7.1
2019-05-12T03:36:09.995Z,7.2
2019-05-12T03:37:09.857Z,7.2
2019-05-12T03:38:14.454Z,7.3
2019-05-12T03:39:14.952Z,7.2
2019-05-12T03:40:14.810Z,7.1
2019-05-12T03:41:16.215Z,7.0
2019-05-12T03:42:17.722Z,7.1
2019-05-12T03:43:19.140Z,7.2
2019-05-12T03:44:20.605Z,7.0
2019-05-12T03:45:24.882Z,7.2
2019-05-12T03:46:24.812Z,7.2
2019-05-12T03:47:25.294Z,7.2
2019-05-12T03:48:26.365Z,7.3
2019-05-12T03:49:28.450Z,7.2
2019-05-12T03:50:29.849Z,7.2
2019-05-12T03:51:31.302Z,7.0
2019-05-12T03:52:34.967Z,7.0
2019-05-12T03:53:35.239Z,7.0
2019-05-12T03:54:36.032Z,6.9
2019-05-12T03:55:41.895Z,7.0
2019-05-12T03:56:38.798Z,7.0
2019-05-12T03:57:40.353Z,6.9
2019-05-12T03:58:44.982Z,6.9
2019-05-12T03:59:44.958Z,6.9
2019-05-12T04:00:44.863Z,6.9
2019-05-12T04:01:46.041Z,6.9
2019-05-12T04:02:47.439Z,7.0
2019-05-12T04:03:49.428Z,7.0
2019-05-12T04:04:50.824Z,7.1
2019-05-12T04:05:55.067Z,7.3
2019-05-12T04:06:54.348Z,7.4
2019-05-12T04:07:55.940Z,7.2
2019-05-12T04:08:59.944Z,7.1
2019-05-12T04:09:58.868Z,7.1
2019-05-12T04:11:00.264Z,7.1
2019-05-12T04:12:05.040Z,7.2
2019-05-12T04:13:04.562Z,7.0
2019-05-12T04:14:05.531Z,7.0
2019-05-12T04:15:06.401Z,6.9
2019-05-12T04:16:07.921Z,6.9
2019-05-12T04:17:09.329Z,7.0
2019-05-12T04:18:11.157Z,7.0
2019-05-12T04:19:14.636Z,6.9
2019-05-12T04:20:15.142Z,6.9
2019-05-12T04:21:15.756Z,7.0
2019-05-12T04:22:16.882Z,7.2
2019-05-12T04:23:18.282Z,7.3
2019-05-12T04:24:19.853Z,7.2
2019-05-12T04:25:24.752Z,7.3
2019-05-12T04:26:25.028Z,7.3
2019-05-12T04:27:25.182Z,7.4
2019-05-12T04:28:25.616Z,7.3
2019-05-12T04:29:27.016Z,7.4
2019-05-12T04:30:28.415Z,7.5
2019-05-12T04:31:29.938Z,7.5
2019-05-12T04:32:31.344Z,7.5
2019-05-12T04:33:34.668Z,7.7
2019-05-12T04:34:34.464Z,7.7
2019-05-12T04:35:35.939Z,7.6
2019-05-12T04:36:37.144Z,7.6
2019-05-12T04:37:38.558Z,7.9
2019-05-12T04:38:40.022Z,7.8
2019-05-12T04:39:44.547Z,7.7
2019-05-12T04:40:45.028Z,7.7
2019-05-12T04:41:45.141Z,7.8
2019-05-12T04:42:46.540Z,7.8
2019-05-12T04:43:47.930Z,7.8
2019-05-12T04:44:49.483Z,7.9
2019-05-12T04:45:50.883Z,7.8
2019-05-12T04:46:55.154Z,7.8
2019-05-12T04:47:55.249Z,7.8
2019-05-12T04:48:55.255Z,7.9
2019-05-12T04:49:56.654Z,8.2
2019-05-12T04:50:58.046Z,8.2
2019-05-12T04:51:59.586Z,8.1
2019-05-12T04:53:00.999Z,8.1
2019-05-12T04:54:05.324Z,8.0
2019-05-12T04:55:04.829Z,8.1
2019-05-12T04:56:15.320Z,8.0
2019-05-12T04:57:07.220Z,8.0
2019-05-12T04:58:08.624Z,8.2
2019-05-12T04:59:10.060Z,8.3
2019-05-12T05:00:11.458Z,8.5
2019-05-12T05:01:15.604Z,8.7
2019-05-12T05:02:15.273Z,8.7
2019-05-12T05:03:16.051Z,8.7
2019-05-12T05:04:17.449Z,8.7
2019-05-12T05:05:18.907Z,8.8
2019-05-12T05:06:20.697Z,8.7
2019-05-12T05:07:24.316Z,8.7
2019-05-12T05:08:24.310Z,8.8
2019-05-12T05:09:25.228Z,8.6
2019-05-12T05:10:26.722Z,8.5
2019-05-12T05:11:28.129Z,8.5
2019-05-12T05:12:29.529Z,8.5
2019-05-12T05:13:31.047Z,8.6
2019-05-12T05:14:34.009Z,8.5
2019-05-12T05:15:34.990Z,8.6
2019-05-12T05:16:35.778Z,8.7
2019-05-12T05:17:37.173Z,8.7
2019-05-12T05:18:40.779Z,8.9
2019-05-12T05:19:40.034Z,8.8
2019-05-12T05:20:43.674Z,8.7
2019-05-12T05:21:43.749Z,8.9
2019-05-12T05:22:44.741Z,8.9
2019-05-12T05:23:46.142Z,9.0
2019-05-12T05:24:47.732Z,8.9
2019-05-12T05:25:49.132Z,9.0
2019-05-12T05:26:50.556Z,9.0
2019-05-12T05:27:53.289Z,9.1
2019-05-12T05:28:54.278Z,9.1
2019-05-12T05:29:55.152Z,9.2
2019-05-12T05:30:56.515Z,9.2
2019-05-12T05:31:57.997Z,9.2
2019-05-12T05:32:59.397Z,9.1
2019-05-12T05:34:00.986Z,9.0
2019-05-12T05:35:03.899Z,8.9
2019-05-12T05:36:08.859Z,8.9
2019-05-12T05:37:05.765Z,9.0
2019-05-12T05:38:10.827Z,9.1
2019-05-12T05:39:08.619Z,9.1
2019-05-12T05:40:10.140Z,9.2
2019-05-12T05:41:13.256Z,9.2
2019-05-12T05:42:13.514Z,9.3
2019-05-12T05:43:18.588Z,9.4
2019-05-12T05:44:15.958Z,9.3
2019-05-12T05:45:22.164Z,9.2
2019-05-12T05:46:19.092Z,9.3
2019-05-12T05:47:25.473Z,9.3
2019-05-12T05:48:23.996Z,9.4
2019-05-12T05:49:23.811Z,9.4
2019-05-12T05:50:29.366Z,9.6
2019-05-12T05:51:26.318Z,9.6
2019-05-12T05:52:33.318Z,9.6
2019-05-12T05:53:29.277Z,9.5
2019-05-12T05:54:35.592Z,9.5
2019-05-12T05:55:34.367Z,9.7
2019-05-12T05:56:42.345Z,9.7
2019-05-12T05:57:36.030Z,9.5
2019-05-12T05:58:40.227Z,9.7
2019-05-12T05:59:38.872Z,9.6
2019-05-12T06:00:40.417Z,9.6
2019-05-12T06:01:47.172Z,9.4
2019-05-12T06:02:44.101Z,9.6
2019-05-12T06:03:44.701Z,9.6
2019-05-12T06:04:49.833Z,9.8
2019-05-12T06:05:47.473Z,10.0
2019-05-12T06:06:55.737Z,9.8
2019-05-12T06:07:50.495Z,9.6
2019-05-12T06:08:54.034Z,9.7
2019-05-12T06:09:53.661Z,9.6
2019-05-12T06:10:54.987Z,9.6
2019-05-12T06:11:59.068Z,9.7
2019-05-12T06:12:57.763Z,9.8
2019-05-12T06:14:03.054Z,9.8
2019-05-12T06:15:00.682Z,9.7
2019-05-12T06:16:04.189Z,9.9
2019-05-12T06:17:04.822Z,10.0
2019-05-12T06:18:06.300Z,10.0
2019-05-12T06:19:09.618Z,10.0
2019-05-12T06:20:13.283Z,9.9
2019-05-12T06:21:13.778Z,10.0
2019-05-12T06:22:15.350Z,10.1
2019-05-12T06:23:15.280Z,10.0
2019-05-12T06:24:20.085Z,10.0
2019-05-12T06:25:18.187Z,10.0
2019-05-12T06:26:21.001Z,10.0
2019-05-12T06:27:21.280Z,9.8
2019-05-12T06:28:23.493Z,10.2
2019-05-12T06:29:25.127Z,10.0
2019-05-12T06:30:25.802Z,10.1
2019-05-12T06:31:29.889Z,10.1
2019-05-12T06:32:28.576Z,10.2
2019-05-12T06:33:31.547Z,10.0
2019-05-12T06:34:31.399Z,10.2
2019-05-12T06:35:37.329Z,10.3
2019-05-12T06:36:34.278Z,10.5
2019-05-12T06:37:35.706Z,10.4
2019-05-12T06:38:40.390Z,10.3
2019-05-12T06:39:38.599Z,10.6
2019-05-12T06:40:41.266Z,10.8
2019-05-12T06:41:41.376Z,11.1
2019-05-12T06:42:43.559Z,10.9
2019-05-12T06:43:45.374Z,10.8
2019-05-12T06:44:49.086Z,10.7
2019-05-12T06:45:47.168Z,10.6
2019-05-12T06:46:53.491Z,10.7
2019-05-12T06:47:53.158Z,10.7
2019-05-12T06:48:54.256Z,10.6
2019-05-12T06:49:56.428Z,10.7
2019-05-12T06:50:55.035Z,10.8
2019-05-12T06:52:01.637Z,11.1
2019-05-12T06:52:57.954Z,11.2
2019-05-12T06:54:00.811Z,11.4
2019-05-12T06:55:00.821Z,11.0
2019-05-12T06:56:04.284Z,11.0
2019-05-12T06:57:18.869Z,11.8
2019-05-12T06:58:05.142Z,11.4
2019-05-12T06:59:10.337Z,11.4
2019-05-12T07:00:07.952Z,11.8
2019-05-12T07:01:11.041Z,12.2
2019-05-12T07:02:10.837Z,12.7
2019-05-12T07:03:14.077Z,13.0
2019-05-12T07:04:14.170Z,12.8
2019-05-12T07:05:15.163Z,12.3
2019-05-12T07:06:19.698Z,12.0
2019-05-12T07:07:18.105Z,11.8
2019-05-12T07:08:26.606Z,11.5
2019-05-12T07:09:24.977Z,11.5
2019-05-12T07:10:36.841Z,11.1
2019-05-12T07:11:24.194Z,11.1
2019-05-12T07:12:32.824Z,11.3
2019-05-12T07:13:29.393Z,11.3
2019-05-12T07:14:28.123Z,11.3
2019-05-12T07:15:34.508Z,11.1
2019-05-12T07:16:31.005Z,11.2
2019-05-12T07:17:37.251Z,11.0
2019-05-12T07:18:36.970Z,10.8
2019-05-12T07:19:35.364Z,10.9
2019-05-12T07:20:38.911Z,11.1
2019-05-12T07:21:38.271Z,11.3
2019-05-12T07:22:44.231Z,11.6
2019-05-12T07:23:41.155Z,12.0
2019-05-12T07:24:49.951Z,12.1
2019-05-12T07:25:44.628Z,12.4
2019-05-12T07:26:47.947Z,12.0
2019-05-12T07:27:54.965Z,11.7
2019-05-12T07:28:48.152Z,11.5
2019-05-12T07:29:49.568Z,11.7
2019-05-12T07:30:51.033Z,12.1
2019-05-12T07:31:53.665Z,12.6
2019-05-12T07:32:59.750Z,13.0
2019-05-12T07:33:55.765Z,12.8
2019-05-12T07:34:57.175Z,13.1
2019-05-12T07:36:01.293Z,13.2
2019-05-12T07:37:00.087Z,13.4
2019-05-12T07:38:04.219Z,13.7
2019-05-12T07:39:04.227Z,13.8
2019-05-12T07:40:04.782Z,14.3
2019-05-12T07:41:08.807Z,14.1
2019-05-12T07:42:07.157Z,14.2
2019-05-12T07:43:09.771Z,14.4
2019-05-12T07:44:10.121Z,14.6
2019-05-12T07:45:20.033Z,14.9
2019-05-12T07:46:13.376Z,14.6
2019-05-12T07:47:19.067Z,14.6
2019-05-12T07:48:15.913Z,14.5
2019-05-12T07:49:22.578Z,14.3
2019-05-12T07:50:20.668Z,14.0
2019-05-12T07:51:20.252Z,13.7
2019-05-12T07:52:24.111Z,14.0
2019-05-12T07:53:23.402Z,14.2
2019-05-12T07:54:24.457Z,14.6
2019-05-12T07:55:25.864Z,14.6
2019-05-12T07:56:32.501Z,14.5
2019-05-12T07:57:28.833Z,14.5
2019-05-12T07:58:30.268Z,14.9
2019-05-12T07:59:35.678Z,14.4
2019-05-12T08:00:33.952Z,14.0
2019-05-12T08:01:38.108Z,13.7
2019-05-12T08:02:36.096Z,13.4
2019-05-12T08:03:37.523Z,13.2
2019-05-12T08:04:39.868Z,12.9
2019-05-12T08:05:40.357Z,12.7
2019-05-12T08:06:42.277Z,13.0
2019-05-12T08:07:44.484Z,13.2
2019-05-12T08:08:50.322Z,12.7
2019-05-12T08:09:46.003Z,12.8
2019-05-12T08:10:51.463Z,12.8
2019-05-12T08:11:48.856Z,12.7
2019-05-12T08:12:51.066Z,12.5
2019-05-12T08:13:54.094Z,12.8
2019-05-12T08:14:54.172Z,12.7
2019-05-12T08:15:56.381Z,13.0
2019-05-12T08:16:55.916Z,13.0
2019-05-12T08:17:59.373Z,12.9
2019-05-12T08:18:58.869Z,13.0
2019-05-12T08:20:00.397Z,13.0
2019-05-12T08:21:03.606Z,13.0
2019-05-12T08:22:04.263Z,12.8
2019-05-12T08:23:10.194Z,12.8
2019-05-12T08:24:06.042Z,12.9
2019-05-12T08:25:07.464Z,13.0
2019-05-12T08:26:11.945Z,12.9
2019-05-12T08:27:10.931Z,12.8
2019-05-12T08:28:18.058Z,12.8
2019-05-12T08:29:16.878Z,13.5
2019-05-12T08:30:15.126Z,14.0
2019-05-12T08:31:16.542Z,13.9
2019-05-12T08:32:20.135Z,13.6
2019-05-12T08:33:19.320Z,14.0
2019-05-12T08:34:20.730Z,13.0
2019-05-12T08:35:29.377Z,12.8
2019-05-12T08:36:23.689Z,12.9
2019-05-12T08:37:24.896Z,12.8
2019-05-12T08:38:26.324Z,12.2
2019-05-12T08:39:27.737Z,12.2
2019-05-12T08:40:29.141Z,12.8
2019-05-12T08:41:30.557Z,13.5
2019-05-12T08:42:34.263Z,14.0
2019-05-12T08:43:34.301Z,14.3
2019-05-12T08:44:40.396Z,14.6
2019-05-12T08:45:37.582Z,14.9
2019-05-12T08:46:43.251Z,15.1
2019-05-12T08:47:39.219Z,15.0
2019-05-12T08:48:40.639Z,14.9
2019-05-12T08:49:51.174Z,15.5
2019-05-12T08:50:46.021Z,15.0
2019-05-12T08:51:49.477Z,15.0
2019-05-12T08:52:47.673Z,15.4
2019-05-12T08:53:53.946Z,15.5
2019-05-12T08:54:50.580Z,15.2
2019-05-12T08:55:53.751Z,15.2
2019-05-12T08:56:59.199Z,15.4
2019-05-12T08:57:54.852Z,14.9
2019-05-12T08:58:57.057Z,14.9
2019-05-12T09:00:02.750Z,14.8
2019-05-12T09:00:59.218Z,14.3
2019-05-12T09:02:05.744Z,14.2
2019-05-12T09:03:03.513Z,14.1
2019-05-12T09:04:06.562Z,14.0
2019-05-12T09:05:04.869Z,14.1
2019-05-12T09:06:09.196Z,13.9
2019-05-12T09:07:07.667Z,14.0
2019-05-12T09:08:09.066Z,13.8
2019-05-12T09:09:10.480Z,14.5
2019-05-12T09:10:14.153Z,15.1
2019-05-12T09:11:13.931Z,15.8
2019-05-12T09:12:15.080Z,17.0
2019-05-12T09:13:16.492Z,17.5
2019-05-12T09:14:17.890Z,15.8
2019-05-12T09:15:19.495Z,15.0
2019-05-12T09:16:20.899Z,14.4
2019-05-12T09:17:23.244Z,15.6
2019-05-12T09:18:28.710Z,17.9
2019-05-12T09:19:27.241Z,18.8
2019-05-12T09:20:27.156Z,19.8
2019-05-12T09:21:31.633Z,20.2
2019-05-12T09:22:30.193Z,19.2
2019-05-12T09:23:34.983Z,20.7
2019-05-12T09:24:34.132Z,22.8
2019-05-12T09:25:39.453Z,22.7
2019-05-12T09:26:38.383Z,22.7
2019-05-12T09:27:44.804Z,23.3
2019-05-12T09:28:47.416Z,22.9
2019-05-12T09:29:43.591Z,23.7
2019-05-12T09:30:47.660Z,23.9
2019-05-12T09:31:45.548Z,23.5
2019-05-12T09:32:50.332Z,24.2
2019-05-12T09:33:48.674Z,25.4
2019-05-12T09:34:53.254Z,23.8
2019-05-12T09:35:51.449Z,22.3
2019-05-12T09:36:59.750Z,22.9
2019-05-12T09:37:54.487Z,22.2
2019-05-12T09:39:01.503Z,22.3
2019-05-12T09:39:57.262Z,23.2
2019-05-12T09:41:01.197Z,23.5
2019-05-12T09:42:00.635Z,22.8
2019-05-12T09:43:08.694Z,21.2
2019-05-12T09:44:04.538Z,19.6
2019-05-12T09:45:08.127Z,19.1
2019-05-12T09:46:06.607Z,18.4
2019-05-12T09:47:13.188Z,18.3
2019-05-12T09:48:09.688Z,18.3
2019-05-12T09:49:11.085Z,18.6
2019-05-12T09:50:18.303Z,18.0
2019-05-12T09:51:16.696Z,17.5
2019-05-12T09:52:22.174Z,17.6
2019-05-12T09:53:17.063Z,18.1
2019-05-12T09:54:18.941Z,17.9
2019-05-12T09:55:22.116Z,17.7
2019-05-12T09:56:23.840Z,17.6
2019-05-12T09:57:23.900Z,17.0
2019-05-12T09:58:27.317Z,16.2
2019-05-12T09:59:26.486Z,16.1
2019-05-12T10:00:30.401Z,15.9
2019-05-12T10:01:34.481Z,16.5
2019-05-12T10:02:30.820Z,16.3
2019-05-12T10:03:38.858Z,17.0
2019-05-12T10:04:33.757Z,18.4
2019-05-12T10:05:41.091Z,18.6
2019-05-12T10:06:36.563Z,16.8
2019-05-12T10:07:38.311Z,16.7
2019-05-12T10:08:39.721Z,16.1
2019-05-12T10:09:41.120Z,16.2
2019-05-12T10:10:44.613Z,16.4
2019-05-12T10:11:44.695Z,16.2
2019-05-12T10:12:50.329Z,16.2
2019-05-12T10:13:47.177Z,16.3
2019-05-12T10:14:48.587Z,16.3
2019-05-12T10:15:49.999Z,15.9
2019-05-12T10:16:51.657Z,15.9
2019-05-12T10:17:54.003Z,16.1
2019-05-12T10:18:54.437Z,15.8
2019-05-12T10:19:58.106Z,15.8
2019-05-12T10:20:57.345Z,15.8
2019-05-12T10:21:59.640Z,16.1
2019-05-12T10:23:00.331Z,16.0
2019-05-12T10:24:04.968Z,16.1
2019-05-12T10:25:04.127Z,16.1
2019-05-12T10:26:10.009Z,16.0
2019-05-12T10:27:07.012Z,15.6
2019-05-12T10:28:11.618Z,15.9
2019-05-12T10:29:17.649Z,16.0
2019-05-12T10:30:13.460Z,15.8
2019-05-12T10:31:13.846Z,16.1
2019-05-12T10:32:14.385Z,16.3
2019-05-12T10:33:15.788Z,16.0
2019-05-12T10:34:17.190Z,16.1
2019-05-12T10:35:21.351Z,16.1
2019-05-12T10:36:20.206Z,15.9
2019-05-12T10:37:25.277Z,15.1
2019-05-12T10:38:24.188Z,15.5
2019-05-12T10:39:24.726Z,15.7
2019-05-12T10:40:25.885Z,16.2
2019-05-12T10:41:27.458Z,16.7
2019-05-12T10:42:28.869Z,16.5
2019-05-12T10:43:30.275Z,16.6
2019-05-12T10:44:37.663Z,16.7
2019-05-12T10:45:33.767Z,16.9
2019-05-12T10:46:35.478Z,16.5
2019-05-12T10:47:36.884Z,16.2
2019-05-12T10:48:38.565Z,16.5
2019-05-12T10:49:39.980Z,16.7
2019-05-12T10:50:41.651Z,16.5
2019-05-12T10:51:44.126Z,16.1
2019-05-12T10:52:44.736Z,16.2
2019-05-12T10:53:48.729Z,16.0
2019-05-12T10:54:47.829Z,16.0
2019-05-12T10:55:49.303Z,15.8
2019-05-12T10:56:50.903Z,15.8
2019-05-12T10:58:00.986Z,15.4
2019-05-12T10:58:54.026Z,15.0
2019-05-12T10:59:55.468Z,15.3
2019-05-12T11:00:58.953Z,15.6
2019-05-12T11:01:58.516Z,15.7
2019-05-12T11:03:01.457Z,15.9
2019-05-12T11:04:01.332Z,16.2
2019-05-12T11:05:02.841Z,16.3
2019-05-12T11:06:07.549Z,16.4
2019-05-12T11:07:05.925Z,17.0
2019-05-12T11:08:11.101Z,16.9
2019-05-12T11:09:09.019Z,16.9
2019-05-12T11:10:16.468Z,16.3
2019-05-12T11:11:13.654Z,16.6
2019-05-12T11:12:13.808Z,16.4
2019-05-12T11:13:17.649Z,17.0
2019-05-12T11:14:20.220Z,17.4
2019-05-12T11:15:18.065Z,16.8
2019-05-12T11:16:22.744Z,16.5
2019-05-12T11:17:20.841Z,16.5
2019-05-12T11:18:26.206Z,16.5
2019-05-12T11:19:24.159Z,16.5
2019-05-12T11:20:25.563Z,16.5
2019-05-12T11:21:27.137Z,16.4
2019-05-12T11:22:28.582Z,16.2
2019-05-12T11:23:30.203Z,15.3
2019-05-12T11:24:33.520Z,15.4
2019-05-12T11:25:34.062Z,15.6
2019-05-12T11:26:34.550Z,16.0
2019-05-12T11:27:35.956Z,16.1
2019-05-12T11:28:37.365Z,15.9
2019-05-12T11:29:46.128Z,15.9
2019-05-12T11:30:40.416Z,16.1
2019-05-12T11:31:43.944Z,16.2
2019-05-12T11:32:44.217Z,16.6
2019-05-12T11:33:44.980Z,16.7
2019-05-12T11:34:46.665Z,16.8
2019-05-12T11:35:48.070Z,16.8
2019-05-12T11:36:49.756Z,16.9
2019-05-12T11:37:53.603Z,17.1
2019-05-12T11:38:53.390Z,17.1
2019-05-12T11:39:54.211Z,16.3
2019-05-12T11:40:55.611Z,16.2
2019-05-12T11:41:57.195Z,16.0
2019-05-12T11:43:01.014Z,16.2
2019-05-12T11:43:59.971Z,16.6
2019-05-12T11:45:01.685Z,16.7
2019-05-12T11:46:03.107Z,17.1
2019-05-12T11:47:04.503Z,17.2
2019-05-12T11:48:09.970Z,16.7
2019-05-12T11:49:09.502Z,16.4
2019-05-12T11:50:10.011Z,16.5
2019-05-12T11:51:10.532Z,16.7
2019-05-12T11:52:16.764Z,17.0
2019-05-12T11:53:13.738Z,16.9
2019-05-12T11:54:14.855Z,16.7
2019-05-12T11:55:21.179Z,16.2
2019-05-12T11:56:17.634Z,15.8
2019-05-12T11:57:20.146Z,16.2
2019-05-12T11:58:20.554Z,16.4
2019-05-12T11:59:23.605Z,16.2
2019-05-12T12:00:24.205Z,15.6
2019-05-12T12:01:24.885Z,15.6
2019-05-12T12:02:30.238Z,16.1
2019-05-12T12:03:27.649Z,16.4
2019-05-12T12:04:29.061Z,16.4
2019-05-12T12:05:33.798Z,16.8
2019-05-12T12:06:34.383Z,17.0
2019-05-12T12:07:38.855Z,17.3
2019-05-12T12:08:37.535Z,18.1
2019-05-12T12:09:39.124Z,19.0
2019-05-12T12:10:40.569Z,19.5
2019-05-12T12:11:43.322Z,19.4
2019-05-12T12:12:47.183Z,19.2
2019-05-12T12:13:44.813Z,18.6
2019-05-12T12:14:50.189Z,18.6
2019-05-12T12:15:47.763Z,18.5
2019-05-12T12:16:50.496Z,18.4
2019-05-12T12:17:50.590Z,18.1
2019-05-12T12:18:59.538Z,17.9
2019-05-12T12:19:54.515Z,17.9
2019-05-12T12:21:02.915Z,17.6
2019-05-12T12:21:56.638Z,17.6
2019-05-12T12:23:00.224Z,18.0
2019-05-12T12:23:59.440Z,18.1
2019-05-12T12:25:05.103Z,18.0
2019-05-12T12:26:03.968Z,17.9
2019-05-12T12:27:04.023Z,18.4
2019-05-12T12:28:05.431Z,18.6
2019-05-12T12:29:07.108Z,19.1
2019-05-12T12:30:18.552Z,19.4
2019-05-12T12:31:09.913Z,19.3
2019-05-12T12:32:17.745Z,19.0
2019-05-12T12:33:14.140Z,19.0
2019-05-12T12:34:17.159Z,18.6
2019-05-12T12:35:15.485Z,18.7
2019-05-12T12:36:17.191Z,18.5
2019-05-12T12:37:18.768Z,18.7
2019-05-12T12:38:19.988Z,19.0
2019-05-12T12:39:23.649Z,19.8
2019-05-12T12:40:22.892Z,20.2
2019-05-12T12:41:24.299Z,20.5
2019-05-12T12:42:30.302Z,20.9
2019-05-12T12:43:27.633Z,21.1
2019-05-12T12:44:29.039Z,18.5
2019-05-12T12:45:35.637Z,17.0
2019-05-12T12:46:33.703Z,16.6
2019-05-12T12:47:37.980Z,16.2
2019-05-12T12:48:34.908Z,17.0
2019-05-12T12:49:39.836Z,18.6
2019-05-12T12:50:37.655Z,20.0
2019-05-12T12:51:39.594Z,20.5
2019-05-12T12:52:46.895Z,20.2
2019-05-12T12:53:43.766Z,19.5
2019-05-12T12:54:43.980Z,18.4
2019-05-12T12:55:45.381Z,18.2
2019-05-12T12:56:46.788Z,18.1
2019-05-12T12:57:50.665Z,17.6
2019-05-12T12:58:49.732Z,17.2
2019-05-12T12:59:52.714Z,17.0
2019-05-12T13:00:56.661Z,16.7
2019-05-12T13:01:58.944Z,16.3
2019-05-12T13:02:56.182Z,16.5
2019-05-12T13:03:59.478Z,17.0
2019-05-12T13:04:59.182Z,16.6
2019-05-12T13:06:00.568Z,16.2
2019-05-12T13:07:01.982Z,16.3
2019-05-12T13:08:04.232Z,16.0
2019-05-12T13:09:08.053Z,15.9
2019-05-12T13:10:09.441Z,15.8
2019-05-12T13:11:07.936Z,16.0
2019-05-12T13:12:15.947Z,16.1
2019-05-12T13:13:10.712Z,15.9
2019-05-12T13:14:13.498Z,15.7
2019-05-12T13:15:14.526Z,15.6
2019-05-12T13:16:15.146Z,15.7
2019-05-12T13:17:16.544Z,15.5
2019-05-12T13:18:24.054Z,15.7
2019-05-12T13:19:20.232Z,16.0
2019-05-12T13:20:23.657Z,16.4
2019-05-12T13:21:23.287Z,16.6
2019-05-12T13:22:24.696Z,16.8
2019-05-12T13:23:36.899Z,16.7
2019-05-12T13:24:27.688Z,16.4
2019-05-12T13:25:29.402Z,16.1
2019-05-12T13:26:31.149Z,16.3
2019-05-12T13:27:36.380Z,16.2
2019-05-12T13:28:34.295Z,15.9
2019-05-12T13:29:39.783Z,16.0
2019-05-12T13:30:46.274Z,15.9
2019-05-12T13:31:41.052Z,15.8
2019-05-12T13:32:39.906Z,15.7
2019-05-12T13:33:41.707Z,15.8
2019-05-12T13:34:43.394Z,15.7
2019-05-12T13:35:44.802Z,15.8
2019-05-12T13:36:46.487Z,15.7
2019-05-12T13:37:50.364Z,15.7
2019-05-12T13:38:49.563Z,15.7
2019-05-12T13:39:58.599Z,15.4
2019-05-12T13:40:54.039Z,15.2
2019-05-12T13:41:56.248Z,15.0
2019-05-12T13:42:55.203Z,15.1
2019-05-12T13:43:59.979Z,15.2
2019-05-12T13:44:58.130Z,15.2
2019-05-12T13:45:59.533Z,15.1
2019-05-12T13:47:03.213Z,15.0
2019-05-12T13:48:03.853Z,15.0
2019-05-12T13:49:03.838Z,15.0
2019-05-12T13:50:05.416Z,15.0
2019-05-12T13:51:12.335Z,15.1